Aérodrome :
LOGIN :

S'inscrire | Disclaimer

   EN    FR    IT 

 










Légende :    VFR   VFR Marginal   IFR   IFR Intensif   IFR Très Intensif
Visi : 
Plafond : 
>= 8 km
>= 3000ft
5 à 8 km
1000 à 3000 ft
1500m à 5 km
500 à 1000 ft
800 à 1500m
200 à 500 ft
< 800m
< 200 ft
Symboles :   Orages  Brouillard  Fortes neiges  Fortes précipitations  Vent > 20 kt
SIGMETs :   Divers  Orages  Givrage  Turbulence  Onde Orograph.  Cendres Volcan.






- Altitude de l'aérodrome : 235 ft
- Code IATA : BZG


EPBY - Bydgoszcz

DERNIER METAR :
  • 031400Z 03008KT 340V080 CAVOK 19/02 Q1005

METARs EXPIRÉS :
  • 031330Z 02008KT 330V060 CAVOK 21/02 Q1005
  • 031300Z 34008KT 310V020 CAVOK 21/00 Q1005
  • 031230Z 34008KT 290V040 CAVOK 20/01 Q1006
  • 031200Z 35011KT CAVOK 19/01 Q1006
  • 031130Z 34010KT 310V010 CAVOK 19/02 Q1006
  • 031100Z 06008KT 010V100 CAVOK 20/02 Q1006

TAF TAF EPBY
Valide du 03 à 12h jusqu'au 04 à 12h UTC


031130Z 0312/0412 04010KT CAVOK
BECMG 0319/0321 VRB03KT
BECMG 0406/0408 12010KT



MET'MAP, la Météo Aéronautique d'un coup d'oeil ! - Copyright ORBIFLY Décembre 2007 - Disclaimer

ORBIFLY MET'MAP TEAM :

Programmation & Développement : Alexandra Zaïnal
Sur une idée originale de : Baudouin d'Aumeries
Assistance à la programmation : Marc-Olivier Méhu
Soutien technique & logistique : Manuel Goepfert

Contact : metmap@orbifly.com




SOURCES & CREDITS :

   NOAA